M I D A S
Marine Information and Data Acquisition System
Tripno 2274 of the Zeeleeuw from 2012-03-09 08:22:30 to 2012-03-09 14:03:56
Back to CruiseResearch ActivitiesStationsMapUnderway DataData graphs

EquipmentUnitsComment
TimeDGPSUTC
LatitudeDGPSDM.mWGS84
LongitudeDGPSDM.mWGS84
HeadingGyrodeg 
SOGDGPSknotsSpeed over ground
COGDGPSdegCourse over ground
DepthEcho soundermeters200 kHz
Missing or incorrect values are displayed as -999
Navigation data collected by the RV Zeeleeuw from 2012-03-09 07:51:19 to 2012-03-09 14:16:54
                                                                                    Next 1000 lines
Time Latitude Longitude Heading SOG COG Depth
2012-03-09 07:51:29 51°13.64 2°56.014 125.8 0.1 342 -999
2012-03-09 07:51:34 51°13.639 2°56.013 125.8 0.1 292 -999
2012-03-09 07:51:39 51°13.638 2°56.013 125.8 0.1 127 -999
2012-03-09 07:51:44 51°13.638 2°56.013 125.8 0.2 78 -999
2012-03-09 07:51:49 51°13.637 2°56.013 125.8 0.2 210 -999
2012-03-09 07:51:54 51°13.637 2°56.014 125.8 -999 73 -999
2012-03-09 07:51:59 51°13.638 2°56.014 125.8 0.1 34 -999
2012-03-09 07:52:04 51°13.638 2°56.014 125.8 0.1 4 -999
2012-03-09 07:52:09 51°13.638 2°56.014 125.8 0.1 337 -999
2012-03-09 07:52:14 51°13.637 2°56.014 125.8 0.3 197 -999
2012-03-09 07:52:19 51°13.638 2°56.014 125.8 0.1 225 -999
2012-03-09 07:52:24 51°13.638 2°56.015 125.7 0.1 12 -999
2012-03-09 07:52:29 51°13.638 2°56.015 125.7 0.1 266 -999
2012-03-09 07:52:34 51°13.637 2°56.015 125.7 0.1 262 -999
2012-03-09 07:52:39 51°13.637 2°56.015 125.7 0.1 234 -999
2012-03-09 07:52:43 51°13.637 2°56.016 125.7 0.1 203 -999
2012-03-09 07:52:49 51°13.637 2°56.016 125.7 0.1 166 -999
2012-03-09 07:52:54 51°13.637 2°56.016 125.7 0.1 72 -999
2012-03-09 07:52:59 51°13.637 2°56.016 125.7 -999 178 -999
2012-03-09 07:53:04 51°13.637 2°56.017 125.7 0.1 81 -999
2012-03-09 07:53:08 51°13.637 2°56.017 125.7 0.3 37 -999
2012-03-09 07:53:14 51°13.636 2°56.017 125.7 0.1 222 -999
2012-03-09 07:53:19 51°13.637 2°56.018 125.7 -999 98 -999
2012-03-09 07:53:24 51°13.636 2°56.018 125.7 0.1 140 -999
2012-03-09 07:53:29 51°13.637 2°56.018 125.7 0.1 159 -999
2012-03-09 07:53:33 51°13.636 2°56.018 125.7 0.1 208 -999
2012-03-09 07:53:39 51°13.636 2°56.018 125.7 0.1 228 -999
2012-03-09 07:53:44 51°13.637 2°56.018 125.8 0.1 252 -999
2012-03-09 07:53:49 51°13.637 2°56.018 125.8 -999 211 -999
2012-03-09 07:53:53 51°13.637 2°56.018 125.8 0.1 166 -999
2012-03-09 07:53:59 51°13.637 2°56.019 125.8 0.1 52 -999
2012-03-09 07:54:04 51°13.637 2°56.018 125.8 0.1 18 -999
2012-03-09 07:54:08 51°13.636 2°56.019 125.8 0.1 350 -999
2012-03-09 07:54:13 51°13.636 2°56.019 125.8 0.1 6 -999
2012-03-09 07:54:19 51°13.636 2°56.019 125.8 0.1 22 -999
2012-03-09 07:54:24 51°13.635 2°56.019 126 -999 347 -999
2012-03-09 07:54:29 51°13.635 2°56.019 126 0.1 214 -999
2012-03-09 07:54:34 51°13.635 2°56.019 126 0.1 194 -999
2012-03-09 07:54:38 51°13.635 2°56.02 126 0.2 34 -999
2012-03-09 07:54:44 51°13.635 2°56.019 126 0.1 36 -999
2012-03-09 07:54:49 51°13.636 2°56.019 126 0.1 22 -999
2012-03-09 07:54:54 51°13.635 2°56.019 126 0.1 218 -999
2012-03-09 07:54:59 51°13.636 2°56.019 126 -999 158 -999
2012-03-09 07:55:04 51°13.636 2°56.018 126 -999 197 -999
2012-03-09 07:55:09 51°13.636 2°56.018 126 0.1 240 -999
2012-03-09 07:55:14 51°13.637 2°56.019 126 0.1 29 -999
2012-03-09 07:55:19 51°13.637 2°56.018 126 -999 290 -999
2012-03-09 07:55:24 51°13.637 2°56.018 126 0.1 241 -999
2012-03-09 07:55:29 51°13.636 2°56.018 126 0.1 234 -999
2012-03-09 07:55:34 51°13.637 2°56.018 125.8 0.1 219 -999
2012-03-09 07:55:39 51°13.637 2°56.018 125.7 0.3 42 -999
2012-03-09 07:55:44 51°13.636 2°56.017 125.7 0.3 227 -999
2012-03-09 07:55:49 51°13.637 2°56.018 125.7 -999 207 -999
2012-03-09 07:55:54 51°13.637 2°56.017 125.7 0.1 181 -999
2012-03-09 07:55:59 51°13.637 2°56.017 125.7 0.1 196 -999
2012-03-09 07:56:04 51°13.637 2°56.017 125.7 0.1 179 -999
2012-03-09 07:56:08 51°13.637 2°56.017 125.7 0.2 201 -999
2012-03-09 07:56:14 51°13.638 2°56.018 125.8 0.1 42 -999
2012-03-09 07:56:19 51°13.638 2°56.017 125.8 0.2 33 -999
2012-03-09 07:56:24 51°13.638 2°56.016 125.8 0.1 46 -999
2012-03-09 07:56:29 51°13.639 2°56.016 125.9 0.1 15 -999
2012-03-09 07:56:34 51°13.638 2°56.016 125.9 0.1 190 -999
2012-03-09 07:56:39 51°13.638 2°56.016 125.9 0.1 191 -999
2012-03-09 07:56:44 51°13.639 2°56.017 125.9 0.2 38 -999
2012-03-09 07:56:49 51°13.638 2°56.017 125.9 0.3 32 -999
2012-03-09 07:56:54 51°13.638 2°56.017 125.9 0.2 41 -999
2012-03-09 07:56:59 51°13.638 2°56.017 125.9 0.1 165 -999
2012-03-09 07:57:04 51°13.638 2°56.016 125.9 0.1 238 -999
2012-03-09 07:57:09 51°13.639 2°56.016 125.9 0.1 212 -999
2012-03-09 07:57:14 51°13.64 2°56.016 125.9 -999 211 -999
2012-03-09 07:57:19 51°13.64 2°56.016 125.9 0.1 36 -999
2012-03-09 07:57:24 51°13.64 2°56.015 125.9 0.1 18 -999
2012-03-09 07:57:29 51°13.64 2°56.015 126 0.2 202 -999
2012-03-09 07:57:34 51°13.64 2°56.016 126 -999 204 -999
2012-03-09 07:57:39 51°13.641 2°56.016 126 0.1 31 -999
2012-03-09 07:57:44 51°13.641 2°56.016 126 0.1 31 -999
2012-03-09 07:57:49 51°13.641 2°56.016 126 0.1 38 -999
2012-03-09 07:57:54 51°13.641 2°56.016 126 0.1 20 -999
2012-03-09 07:57:59 51°13.641 2°56.015 126 0.1 219 -999
2012-03-09 07:58:04 51°13.641 2°56.016 126 0.1 198 -999
2012-03-09 07:58:09 51°13.64 2°56.015 126 0.1 199 -999
2012-03-09 07:58:13 51°13.641 2°56.016 126 -999 163 -999
2012-03-09 07:58:19 51°13.64 2°56.015 126 0.1 218 -999
2012-03-09 07:58:24 51°13.64 2°56.016 126 0.1 86 -999
2012-03-09 07:58:29 51°13.64 2°56.016 126 0.1 187 -999
2012-03-09 07:58:34 51°13.639 2°56.016 126 0.2 222 -999
2012-03-09 07:58:38 51°13.639 2°56.017 126.1 0.1 22 -999
2012-03-09 07:58:43 51°13.638 2°56.016 126.1 0.2 207 -999
2012-03-09 07:58:49 51°13.638 2°56.017 126.1 0.3 201 -999
2012-03-09 07:58:54 51°13.638 2°56.017 126.1 0.1 18 -999
2012-03-09 07:58:59 51°13.638 2°56.018 126.1 -999 72 -999
2012-03-09 07:59:04 51°13.637 2°56.018 126.1 0.2 21 -999
2012-03-09 07:59:09 51°13.637 2°56.018 126.1 0.2 56 -999
2012-03-09 07:59:14 51°13.637 2°56.018 126.1 0.1 56 -999
2012-03-09 07:59:19 51°13.638 2°56.018 126.1 0.2 44 -999
2012-03-09 07:59:24 51°13.638 2°56.018 126.1 0.3 44 -999
2012-03-09 07:59:29 51°13.638 2°56.018 126.1 0.2 26 -999
2012-03-09 07:59:34 51°13.638 2°56.018 126.1 0.1 97 -999
2012-03-09 07:59:39 51°13.638 2°56.018 126.1 0.2 29 -999
2012-03-09 07:59:44 51°13.638 2°56.018 126.1 0.1 39 -999
2012-03-09 07:59:48 51°13.637 2°56.018 126.1 -999 138 -999
2012-03-09 07:59:54 51°13.637 2°56.018 126.1 -999 271 -999
2012-03-09 07:59:59 51°13.637 2°56.018 126.1 -999 15 -999
2012-03-09 08:00:04 51°13.637 2°56.018 126.1 -999 189 -999
2012-03-09 08:00:09 51°13.637 2°56.018 126.1 -999 201 -999
2012-03-09 08:00:14 51°13.637 2°56.017 126.1 0.1 191 -999
2012-03-09 08:00:19 51°13.637 2°56.017 126.1 0.1 198 -999
2012-03-09 08:00:24 51°13.638 2°56.018 126.1 0.1 11 -999
2012-03-09 08:00:29 51°13.638 2°56.018 126.1 0.2 22 -999
2012-03-09 08:00:34 51°13.638 2°56.018 126.1 0.1 13 -999
2012-03-09 08:00:39 51°13.638 2°56.018 126.1 0.1 12 -999
2012-03-09 08:00:44 51°13.638 2°56.018 126.1 0.1 194 -999
2012-03-09 08:00:48 51°13.638 2°56.018 126.1 0.1 195 -999
2012-03-09 08:00:54 51°13.638 2°56.017 126.1 0.1 194 -999
2012-03-09 08:00:59 51°13.638 2°56.017 126.1 -999 210 -999
2012-03-09 08:01:04 51°13.638 2°56.017 126.1 0.1 220 -999
2012-03-09 08:01:09 51°13.638 2°56.017 126.1 0.1 234 -999
2012-03-09 08:01:14 51°13.638 2°56.017 126.2 0.1 224 -999
2012-03-09 08:01:19 51°13.638 2°56.017 126.2 0.1 216 -999
2012-03-09 08:01:24 51°13.637 2°56.017 126.2 0.2 219 -999
2012-03-09 08:01:29 51°13.638 2°56.018 126.2 0.1 217 -999
2012-03-09 08:01:34 51°13.638 2°56.018 126.2 0.1 22 -999
2012-03-09 08:01:39 51°13.638 2°56.018 126.2 0.1 45 -999
2012-03-09 08:01:44 51°13.638 2°56.018 126.2 0.1 268 -999
2012-03-09 08:01:49 51°13.638 2°56.018 126.2 0.1 5 -999
2012-03-09 08:01:54 51°13.638 2°56.018 126.2 -999 249 -999
2012-03-09 08:01:59 51°13.638 2°56.018 126.2 -999 259 -999
2012-03-09 08:02:03 51°13.638 2°56.018 126.2 -999 258 -999
2012-03-09 08:02:09 51°13.638 2°56.017 126.2 0.2 227 -999
2012-03-09 08:02:14 51°13.638 2°56.017 126.2 0.1 218 -999
2012-03-09 08:02:19 51°13.638 2°56.017 126.2 0.1 176 -999
2012-03-09 08:02:24 51°13.639 2°56.017 126.2 0.2 25 -999
2012-03-09 08:02:29 51°13.639 2°56.017 126.2 0.2 38 -999
2012-03-09 08:02:34 51°13.639 2°56.017 126.2 -999 20 -999
2012-03-09 08:02:39 51°13.638 2°56.016 126.2 -999 316 -999
2012-03-09 08:02:43 51°13.638 2°56.016 126.2 -999 300 -999
2012-03-09 08:02:49 51°13.638 2°56.016 126.2 -999 204 -999
2012-03-09 08:02:54 51°13.638 2°56.016 126.2 0.2 202 -999
2012-03-09 08:02:59 51°13.638 2°56.016 126.2 -999 1 -999
2012-03-09 08:03:04 51°13.638 2°56.016 126.3 0.1 200 -999
2012-03-09 08:03:08 51°13.638 2°56.016 126.3 0.1 208 -999
2012-03-09 08:03:14 51°13.638 2°56.017 126.3 -999 196 -999
2012-03-09 08:03:19 51°13.638 2°56.016 126.3 0.2 205 -999
2012-03-09 08:03:24 51°13.638 2°56.017 126.3 0.1 5 -999
2012-03-09 08:03:29 51°13.638 2°56.017 126.3 -999 6 -999
2012-03-09 08:03:34 51°13.638 2°56.017 126.3 0.1 37 -999
2012-03-09 08:03:39 51°13.638 2°56.017 126.3 0.1 198 -999
2012-03-09 08:03:44 51°13.638 2°56.017 126.3 0.1 177 -999
2012-03-09 08:03:49 51°13.638 2°56.017 126.3 0.1 217 -999
2012-03-09 08:03:54 51°13.638 2°56.017 126.3 0.1 212 -999
2012-03-09 08:03:59 51°13.638 2°56.017 126.3 0.1 200 -999
2012-03-09 08:04:04 51°13.638 2°56.017 126.3 -999 26 -999
2012-03-09 08:04:09 51°13.638 2°56.017 126.3 0.1 11 -999
2012-03-09 08:04:14 51°13.638 2°56.017 126.3 0.1 272 -999
2012-03-09 08:04:19 51°13.638 2°56.017 126.3 0.1 320 -999
2012-03-09 08:04:24 51°13.638 2°56.017 126.3 -999 220 -999
2012-03-09 08:04:29 51°13.638 2°56.017 126.3 -999 158 -999
2012-03-09 08:04:34 51°13.637 2°56.016 126.3 0.2 216 -999
2012-03-09 08:04:39 51°13.637 2°56.017 126.3 0.1 212 -999
2012-03-09 08:04:44 51°13.637 2°56.018 126.3 0.1 52 -999
2012-03-09 08:04:48 51°13.637 2°56.018 126.3 0.2 51 -999
2012-03-09 08:04:53 51°13.637 2°56.018 126.3 0.1 41 -999
2012-03-09 08:04:59 51°13.637 2°56.017 126.3 0.2 211 -999
2012-03-09 08:05:04 51°13.637 2°56.017 126.3 0.1 8 -999
2012-03-09 08:05:09 51°13.638 2°56.018 126.3 0.3 24 -999
2012-03-09 08:05:14 51°13.637 2°56.017 126.3 0.1 46 -999
2012-03-09 08:05:19 51°13.637 2°56.017 126.3 0.1 217 -999
2012-03-09 08:05:24 51°13.637 2°56.017 126.3 0.1 230 -999
2012-03-09 08:05:29 51°13.637 2°56.017 126.3 0.1 26 -999
2012-03-09 08:05:34 51°13.637 2°56.018 126.3 0.1 30 -999
2012-03-09 08:05:39 51°13.637 2°56.018 126.3 0.2 34 -999
2012-03-09 08:05:44 51°13.637 2°56.018 126.3 0.4 25 -999
2012-03-09 08:05:49 51°13.636 2°56.018 126.4 -999 244 -999
2012-03-09 08:05:53 51°13.637 2°56.018 126.4 -999 221 -999
2012-03-09 08:05:59 51°13.636 2°56.017 126.4 -999 90 -999
2012-03-09 08:06:04 51°13.636 2°56.017 126.4 -999 342 -999
2012-03-09 08:06:09 51°13.636 2°56.017 126.4 0.2 18 -999
2012-03-09 08:06:14 51°13.636 2°56.016 126.4 0.1 329 -999
2012-03-09 08:06:19 51°13.636 2°56.016 126.4 -999 330 -999
2012-03-09 08:06:24 51°13.636 2°56.016 126.4 0.2 223 -999
2012-03-09 08:06:29 51°13.636 2°56.017 126.3 0.1 33 -999
2012-03-09 08:06:34 51°13.636 2°56.017 126.3 0.1 36 -999
2012-03-09 08:06:39 51°13.636 2°56.017 126.4 0.1 10 -999
2012-03-09 08:06:44 51°13.636 2°56.017 126.4 -999 344 -999
2012-03-09 08:06:48 51°13.636 2°56.017 126.4 0.1 205 -999
2012-03-09 08:06:53 51°13.636 2°56.017 126.4 0.1 209 -999
2012-03-09 08:06:59 51°13.636 2°56.017 126.4 -999 316 -999
2012-03-09 08:07:04 51°13.637 2°56.017 126.4 0.2 37 -999
2012-03-09 08:07:09 51°13.637 2°56.017 126.4 0.1 40 -999
2012-03-09 08:07:14 51°13.636 2°56.017 126.4 0.1 204 -999
2012-03-09 08:07:19 51°13.636 2°56.017 126.4 0.3 218 -999
2012-03-09 08:07:24 51°13.637 2°56.018 126.4 0.1 17 -999
2012-03-09 08:07:29 51°13.637 2°56.018 126.5 0.2 25 -999
2012-03-09 08:07:34 51°13.637 2°56.018 126.7 0.1 14 -999
2012-03-09 08:07:39 51°13.637 2°56.018 126.7 0.1 62 -999
2012-03-09 08:07:44 51°13.637 2°56.018 126.9 0.1 53 -999
2012-03-09 08:07:49 51°13.637 2°56.017 126.9 0.1 239 -999
2012-03-09 08:07:54 51°13.637 2°56.017 126.9 0.1 226 -999
2012-03-09 08:07:58 51°13.637 2°56.017 126.9 0.1 197 -999
2012-03-09 08:08:04 51°13.636 2°56.018 127 0.1 203 -999
2012-03-09 08:08:09 51°13.636 2°56.017 127 0.2 215 -999
2012-03-09 08:08:14 51°13.636 2°56.018 126.9 0.2 217 -999
2012-03-09 08:08:19 51°13.637 2°56.019 126.7 0.2 237 -999
2012-03-09 08:08:24 51°13.637 2°56.019 126.6 0.1 236 -999
2012-03-09 08:08:29 51°13.638 2°56.02 126.5 0.1 32 -999
2012-03-09 08:08:34 51°13.638 2°56.02 126.4 0.1 33 -999
2012-03-09 08:08:39 51°13.638 2°56.019 126.4 -999 345 -999
2012-03-09 08:08:44 51°13.638 2°56.019 126.4 0.1 229 -999
2012-03-09 08:08:49 51°13.638 2°56.019 126.4 -999 17 -999
2012-03-09 08:08:54 51°13.637 2°56.019 126.4 -999 132 -999
2012-03-09 08:08:59 51°13.637 2°56.018 126.4 -999 225 -999
2012-03-09 08:09:04 51°13.637 2°56.018 126.5 0.1 276 -999
2012-03-09 08:09:09 51°13.637 2°56.018 126.5 0.1 225 -999
2012-03-09 08:09:14 51°13.637 2°56.018 126.5 -999 63 -999
2012-03-09 08:09:19 51°13.637 2°56.018 126.5 -999 113 -999
2012-03-09 08:09:24 51°13.638 2°56.018 126.5 0.2 43 -999
2012-03-09 08:09:29 51°13.637 2°56.018 126.5 0.1 41 -999
2012-03-09 08:09:34 51°13.638 2°56.018 126.5 0.1 32 -999
2012-03-09 08:09:39 51°13.637 2°56.018 126.5 0.1 212 -999
2012-03-09 08:09:43 51°13.637 2°56.018 126.5 -999 174 -999
2012-03-09 08:09:48 51°13.638 2°56.019 126.5 0.4 35 -999
2012-03-09 08:09:53 51°13.637 2°56.019 126.5 0.1 205 -999
2012-03-09 08:09:59 51°13.637 2°56.018 126.5 0.1 210 -999
2012-03-09 08:10:04 51°13.637 2°56.018 126.7 0.2 226 -999
2012-03-09 08:10:09 51°13.637 2°56.018 126.7 0.2 222 -999
2012-03-09 08:10:14 51°13.636 2°56.018 126.8 0.2 204 -999
2012-03-09 08:10:19 51°13.637 2°56.018 126.8 0.1 90 -999
2012-03-09 08:10:24 51°13.637 2°56.018 126.9 -999 158 -999
2012-03-09 08:10:29 51°13.637 2°56.018 126.9 0.1 241 -999
2012-03-09 08:10:34 51°13.637 2°56.018 126.9 0.2 222 -999
2012-03-09 08:10:39 51°13.637 2°56.018 126.8 -999 25 -999
2012-03-09 08:10:44 51°13.637 2°56.018 126.7 0.1 28 -999
2012-03-09 08:10:49 51°13.637 2°56.018 126.6 0.2 234 -999
2012-03-09 08:10:54 51°13.638 2°56.019 126.6 0.1 42 -999
2012-03-09 08:10:59 51°13.638 2°56.019 126.6 0.1 37 -999
2012-03-09 08:11:04 51°13.638 2°56.019 126.5 0.1 29 -999
2012-03-09 08:11:08 51°13.637 2°56.019 126.5 0.1 40 -999
2012-03-09 08:11:14 51°13.638 2°56.019 126.5 0.2 40 -999
2012-03-09 08:11:19 51°13.637 2°56.019 126.5 0.1 5 -999
2012-03-09 08:11:24 51°13.637 2°56.019 126.5 0.1 346 -999
2012-03-09 08:11:28 51°13.638 2°56.019 126.5 0.1 7 -999
2012-03-09 08:11:34 51°13.637 2°56.019 126.4 -999 328 -999
2012-03-09 08:11:39 51°13.637 2°56.018 126.3 0.2 187 -999
2012-03-09 08:11:44 51°13.637 2°56.019 126.1 0.1 141 -999
2012-03-09 08:11:49 51°13.637 2°56.019 125.8 -999 67 -999
2012-03-09 08:11:54 51°13.637 2°56.019 125.6 0.1 26 -999
2012-03-09 08:11:59 51°13.637 2°56.019 125.5 0.1 45 -999
2012-03-09 08:12:04 51°13.637 2°56.018 125.4 0.1 211 -999
2012-03-09 08:12:08 51°13.637 2°56.018 125.2 0.1 238 -999
2012-03-09 08:12:14 51°13.637 2°56.019 125.1 0.2 32 -999
2012-03-09 08:12:19 51°13.637 2°56.019 125 0.1 31 -999
2012-03-09 08:12:24 51°13.638 2°56.019 124.9 0.1 13 -999
2012-03-09 08:12:29 51°13.637 2°56.018 124.9 0.1 336 -999
2012-03-09 08:12:34 51°13.637 2°56.018 124.9 0.2 222 -999
2012-03-09 08:12:39 51°13.637 2°56.018 124.9 0.1 199 -999
2012-03-09 08:12:44 51°13.637 2°56.018 124.9 0.1 170 -999
2012-03-09 08:12:49 51°13.637 2°56.018 124.9 -999 324 -999
2012-03-09 08:12:54 51°13.637 2°56.019 124.9 0.2 39 -999
2012-03-09 08:12:59 51°13.637 2°56.018 124.9 -999 138 -999
2012-03-09 08:13:04 51°13.636 2°56.018 124.9 0.3 202 -999
2012-03-09 08:13:08 51°13.637 2°56.018 124.9 -999 272 -999
2012-03-09 08:13:14 51°13.637 2°56.018 124.9 0.1 206 -999
2012-03-09 08:13:19 51°13.637 2°56.018 124.9 0.1 53 -999
2012-03-09 08:13:24 51°13.637 2°56.018 124.9 0.1 338 -999
2012-03-09 08:13:28 51°13.637 2°56.019 124.9 0.2 30 -999
2012-03-09 08:13:34 51°13.637 2°56.018 124.9 0.1 44 -999
2012-03-09 08:13:39 51°13.637 2°56.018 124.9 0.1 213 -999
2012-03-09 08:13:44 51°13.637 2°56.018 124.9 0.3 219 -999
2012-03-09 08:13:48 51°13.637 2°56.018 124.9 -999 55 -999
2012-03-09 08:13:54 51°13.637 2°56.018 124.9 0.1 221 -999
2012-03-09 08:13:59 51°13.637 2°56.018 124.9 0.1 181 -999
2012-03-09 08:14:04 51°13.637 2°56.018 124.9 0.1 172 -999
2012-03-09 08:14:08 51°13.637 2°56.018 125.2 0.1 110 -999
2012-03-09 08:14:14 51°13.637 2°56.018 125.5 0.1 163 -999
2012-03-09 08:14:19 51°13.637 2°56.018 126.2 -999 129 -999
2012-03-09 08:14:24 51°13.637 2°56.017 127 -999 3 -999
2012-03-09 08:14:29 51°13.637 2°56.017 127.1 0.1 282 -999
2012-03-09 08:14:34 51°13.637 2°56.018 126.9 -999 349 -999
2012-03-09 08:14:39 51°13.637 2°56.018 126.6 0.2 198 -999
2012-03-09 08:14:44 51°13.637 2°56.018 126.6 0.1 44 -999
2012-03-09 08:14:49 51°13.637 2°56.018 127.3 0.2 57 -999
2012-03-09 08:14:54 51°13.637 2°56.018 127.6 0.1 168 -999
2012-03-09 08:14:59 51°13.636 2°56.018 127.6 0.1 192 -999
2012-03-09 08:15:04 51°13.636 2°56.018 127.5 0.2 202 -999
2012-03-09 08:15:09 51°13.637 2°56.018 127.5 0.1 243 -999
2012-03-09 08:15:14 51°13.637 2°56.018 127.5 0.1 234 -999
2012-03-09 08:15:19 51°13.637 2°56.018 127.8 0.1 89 4.8
2012-03-09 08:15:24 51°13.637 2°56.019 127.9 0.2 51 -999
2012-03-09 08:15:28 51°13.636 2°56.018 127.9 0.1 184 -999
2012-03-09 08:15:34 51°13.637 2°56.018 127.9 0.1 217 -999
2012-03-09 08:15:39 51°13.636 2°56.018 127.9 0.1 123 4.8
2012-03-09 08:15:44 51°13.637 2°56.018 127.9 0.1 124 -999
2012-03-09 08:15:48 51°13.637 2°56.018 127.9 0.1 221 -999
2012-03-09 08:15:54 51°13.637 2°56.018 127.7 -999 231 -999
2012-03-09 08:15:59 51°13.637 2°56.019 127.2 0.2 44 -999
2012-03-09 08:16:04 51°13.636 2°56.018 126.7 0.1 185 -999
2012-03-09 08:16:09 51°13.636 2°56.018 126.1 0.1 215 -999
2012-03-09 08:16:14 51°13.636 2°56.018 125.7 0.1 233 -999
2012-03-09 08:16:19 51°13.636 2°56.018 125.4 0.2 187 -999
2012-03-09 08:16:24 51°13.636 2°56.018 125 0.2 199 -999
2012-03-09 08:16:28 51°13.636 2°56.018 124.5 0.1 198 -999
2012-03-09 08:16:34 51°13.636 2°56.018 123.8 -999 342 -999
2012-03-09 08:16:39 51°13.636 2°56.018 123.2 0.1 340 -999
2012-03-09 08:16:44 51°13.636 2°56.018 122.6 -999 334 -999
2012-03-09 08:16:49 51°13.636 2°56.019 122 0.2 19 -999
2012-03-09 08:16:54 51°13.636 2°56.018 121.5 0.1 131 -999
2012-03-09 08:16:59 51°13.636 2°56.018 120.9 0.2 157 -999
2012-03-09 08:17:04 51°13.636 2°56.018 120.2 0.2 144 -999
2012-03-09 08:17:09 51°13.636 2°56.018 119.7 0.1 200 -999
2012-03-09 08:17:14 51°13.635 2°56.018 119 0.2 233 -999
2012-03-09 08:17:19 51°13.635 2°56.018 118.2 -999 252 -999
2012-03-09 08:17:24 51°13.636 2°56.018 117.4 0.1 45 -999
2012-03-09 08:17:29 51°13.635 2°56.018 116.7 0.1 73 -999
2012-03-09 08:17:34 51°13.635 2°56.018 116 0.1 292 -999
2012-03-09 08:17:39 51°13.635 2°56.018 115.3 0.1 133 -999
2012-03-09 08:17:44 51°13.635 2°56.018 114.8 -999 112 -999
2012-03-09 08:17:48 51°13.635 2°56.018 114.1 0.2 44 -999
2012-03-09 08:17:54 51°13.635 2°56.018 113.6 0.2 110 -999
2012-03-09 08:17:59 51°13.635 2°56.018 113.2 0.1 284 -999
2012-03-09 08:18:04 51°13.635 2°56.018 112.7 0.1 106 -999
2012-03-09 08:18:08 51°13.635 2°56.018 112.2 0.2 169 -999
2012-03-09 08:18:14 51°13.635 2°56.017 111.8 0.1 194 -999
2012-03-09 08:18:19 51°13.635 2°56.017 111.2 -999 223 -999
2012-03-09 08:18:24 51°13.635 2°56.017 110.8 0.1 337 -999
2012-03-09 08:18:28 51°13.635 2°56.017 110.3 0.1 289 -999
2012-03-09 08:18:33 51°13.635 2°56.017 109.8 0.1 343 6.4
2012-03-09 08:18:39 51°13.634 2°56.017 109.2 0.1 302 6.4
2012-03-09 08:18:44 51°13.634 2°56.017 108.6 0.1 309 -999
2012-03-09 08:18:49 51°13.635 2°56.016 108.4 0.4 318 -999
2012-03-09 08:18:54 51°13.635 2°56.015 108.9 0.8 307 -999
2012-03-09 08:18:59 51°13.636 2°56.012 109.1 1.5 294 6.4
2012-03-09 08:19:04 51°13.637 2°56.008 109.1 2.1 295 6.4
2012-03-09 08:19:09 51°13.639 2°56.002 109 2.6 291 -999
2012-03-09 08:19:14 51°13.641 2°55.996 108.7 3.1 294 -999
2012-03-09 08:19:19 51°13.642 2°55.99 108.5 3.3 292 -999
2012-03-09 08:19:24 51°13.644 2°55.983 108.8 3.4 295 -999
2012-03-09 08:19:29 51°13.646 2°55.976 109 3.4 292 -999
2012-03-09 08:19:34 51°13.648 2°55.969 109.2 3.4 295 -999
2012-03-09 08:19:39 51°13.65 2°55.962 109.5 3.5 293 -999
2012-03-09 08:19:44 51°13.652 2°55.955 109.7 3.3 294 -999
2012-03-09 08:19:49 51°13.653 2°55.947 109.1 3.5 292 4.8
2012-03-09 08:19:54 51°13.655 2°55.94 108.4 3.4 291 -999
2012-03-09 08:19:59 51°13.657 2°55.935 107.7 2.8 291 -999
2012-03-09 08:20:04 51°13.658 2°55.932 106 1.5 303 -999
2012-03-09 08:20:08 51°13.659 2°55.931 105.1 0.6 321 -999
2012-03-09 08:20:14 51°13.659 2°55.931 107.3 0.4 318 -999
2012-03-09 08:20:19 51°13.66 2°55.93 110.7 0.6 324 -999
2012-03-09 08:20:24 51°13.661 2°55.929 112.2 1 320 -999
2012-03-09 08:20:28 51°13.662 2°55.926 112.9 1.5 301 -999
2012-03-09 08:20:34 51°13.663 2°55.922 113.6 1.8 299 -999
2012-03-09 08:20:39 51°13.664 2°55.918 114 1.9 294 -999
2012-03-09 08:20:44 51°13.666 2°55.914 114.2 2.2 296 -999
2012-03-09 08:20:48 51°13.667 2°55.911 114.3 2.5 296 5.1
2012-03-09 08:20:54 51°13.669 2°55.904 114.4 2.9 295 -999
2012-03-09 08:20:59 51°13.672 2°55.898 114.9 3.1 296 -999
2012-03-09 08:21:04 51°13.674 2°55.89 115.6 3.5 297 -999
2012-03-09 08:21:09 51°13.676 2°55.883 116.3 3.8 296 -999
2012-03-09 08:21:14 51°13.679 2°55.875 117.3 4 298 -999
2012-03-09 08:21:19 51°13.682 2°55.867 118.6 4.3 298 -999
2012-03-09 08:21:24 51°13.685 2°55.857 119.8 4.8 299 -999
2012-03-09 08:21:29 51°13.689 2°55.848 121 5 299 -999
2012-03-09 08:21:34 51°13.692 2°55.838 122 5.2 300 -999
2012-03-09 08:21:39 51°13.696 2°55.828 123.1 5.3 302 -999
2012-03-09 08:21:44 51°13.7 2°55.818 124 5.4 303 -999
2012-03-09 08:21:49 51°13.705 2°55.808 124.6 5.5 303 -999
2012-03-09 08:21:54 51°13.709 2°55.797 124.9 5.6 304 -999
2012-03-09 08:21:59 51°13.713 2°55.787 125.2 5.5 304 -999
2012-03-09 08:22:04 51°13.718 2°55.778 125.8 5.2 306 -999
2012-03-09 08:22:09 51°13.721 2°55.768 126.8 5.1 305 -999
2012-03-09 08:22:14 51°13.725 2°55.759 128.3 5 305 -999
2012-03-09 08:22:19 51°13.729 2°55.75 130.1 4.8 305 -999
2012-03-09 08:22:24 51°13.734 2°55.742 132.2 4.9 308 -999
2012-03-09 08:22:28 51°13.737 2°55.736 134.7 4.9 311 -999
2012-03-09 08:22:34 51°13.743 2°55.727 136.8 4.8 313 -999
2012-03-09 08:22:39 51°13.747 2°55.719 138.7 4.9 313 -999
2012-03-09 08:22:44 51°13.752 2°55.711 140.8 4.9 315 -999
2012-03-09 08:22:49 51°13.757 2°55.704 142.7 5 318 -999
2012-03-09 08:22:54 51°13.763 2°55.698 144.7 5 323 -999
2012-03-09 08:22:59 51°13.768 2°55.691 146.7 5 324 -999
2012-03-09 08:23:04 51°13.774 2°55.685 148.5 5.1 325 -999
2012-03-09 08:23:08 51°13.779 2°55.68 150 5.4 328 -999
2012-03-09 08:23:14 51°13.787 2°55.672 151.3 5.4 328 -999
2012-03-09 08:23:19 51°13.794 2°55.666 152.5 5.6 330 -999
2012-03-09 08:23:24 51°13.801 2°55.66 153.3 5.7 332 -999
2012-03-09 08:23:29 51°13.808 2°55.655 153.9 5.5 333 -999
2012-03-09 08:23:34 51°13.814 2°55.649 154.1 5.4 334 -999
2012-03-09 08:23:39 51°13.821 2°55.644 154.5 5.3 333 -999
2012-03-09 08:23:44 51°13.827 2°55.639 154.8 5.2 334 -999
2012-03-09 08:23:49 51°13.834 2°55.634 155.2 5.1 335 -999
2012-03-09 08:23:54 51°13.84 2°55.63 155.7 5.1 336 -999
2012-03-09 08:23:59 51°13.847 2°55.626 156.4 5 339 -999
2012-03-09 08:24:04 51°13.853 2°55.621 157.3 4.7 335 -999
2012-03-09 08:24:09 51°13.859 2°55.617 158 4.8 338 -999
2012-03-09 08:24:14 51°13.865 2°55.613 158.5 4.8 339 -999
2012-03-09 08:24:19 51°13.871 2°55.609 159.8 4.7 338 -999
2012-03-09 08:24:24 51°13.878 2°55.606 161.7 4.7 339 -999
2012-03-09 08:24:29 51°13.884 2°55.602 163.3 4.6 340 -999
2012-03-09 08:24:34 51°13.89 2°55.6 164.2 4.6 344 -999
2012-03-09 08:24:37 51°13.894 2°55.598 164.7 4.6 343 -999
2012-03-09 08:24:44 51°13.902 2°55.595 166.6 4.5 344 -999
2012-03-09 08:24:49 51°13.908 2°55.592 166.5 4.3 342 -999
2012-03-09 08:24:54 51°13.913 2°55.589 166.3 4.1 342 -999
2012-03-09 08:24:59 51°13.918 2°55.587 166.3 3.9 342 -999
2012-03-09 08:25:04 51°13.923 2°55.584 166.2 3.8 342 -999
2012-03-09 08:25:09 51°13.928 2°55.582 166.2 3.7 342 -999
2012-03-09 08:25:14 51°13.933 2°55.581 166.2 3.6 344 9.1
2012-03-09 08:25:19 51°13.937 2°55.578 166.3 3.4 342 9.1
2012-03-09 08:25:24 51°13.941 2°55.576 166.4 3.2 344 9.1
2012-03-09 08:25:28 51°13.945 2°55.575 166.7 3.3 347 9.1
2012-03-09 08:25:33 51°13.95 2°55.573 167 3.2 348 9.1
2012-03-09 08:25:38 51°13.953 2°55.571 167.7 3 344 9.1
2012-03-09 08:25:43 51°13.957 2°55.569 168.2 3 341 9.1
2012-03-09 08:25:48 51°13.961 2°55.566 168.8 3.1 342 9.1
2012-03-09 08:25:52 51°13.965 2°55.566 169.4 3.2 346 9.2
2012-03-09 08:25:57 51°13.969 2°55.564 170.8 3.2 347 9.1
2012-03-09 08:26:02 51°13.974 2°55.563 172.1 3.1 348 5.2
2012-03-09 08:26:08 51°13.979 2°55.56 174 2.9 346 -999
2012-03-09 08:26:13 51°13.982 2°55.56 175.2 2.7 347 -999
2012-03-09 08:26:19 51°13.986 2°55.558 176.6 2 344 -999
2012-03-09 08:26:24 51°13.988 2°55.557 178.9 1.3 344 -999
2012-03-09 08:26:28 51°13.988 2°55.556 182.7 0.5 305 -999
2012-03-09 08:26:34 51°13.988 2°55.555 187.1 0.6 252 -999
2012-03-09 08:26:39 51°13.988 2°55.554 194 0.7 258 -999
2012-03-09 08:26:44 51°13.988 2°55.552 201 0.7 261 -999
2012-03-09 08:26:48 51°13.987 2°55.551 208.2 0.8 267 9.2
2012-03-09 08:26:53 51°13.987 2°55.548 211.6 0.9 275 9.1
2012-03-09 08:26:58 51°13.987 2°55.546 215.4 0.8 286 9.2
2012-03-09 08:27:03 51°13.988 2°55.546 218.5 0.8 330 9.1
2012-03-09 08:27:08 51°13.989 2°55.545 222.8 1 347 9.1
2012-03-09 08:27:13 51°13.991 2°55.545 225.8 1.2 -999 9.1
2012-03-09 08:27:18 51°13.993 2°55.547 230.1 1.6 20 9.1
2012-03-09 08:27:23 51°13.995 2°55.549 234.4 1.8 39 9.1
2012-03-09 08:27:28 51°13.997 2°55.552 238.7 2.2 40 9.1
2012-03-09 08:27:33 51°14 2°55.557 243.8 2.4 47 -999
2012-03-09 08:27:39 51°14.002 2°55.562 248.7 2.4 58 -999
2012-03-09 08:27:44 51°14.004 2°55.567 253.5 2.7 62 -999
2012-03-09 08:27:48 51°14.005 2°55.573 258.2 3 71 -999
2012-03-09 08:27:54 51°14.007 2°55.582 261.4 3.2 75 -999
2012-03-09 08:27:59 51°14.008 2°55.588 265.7 2.9 75 -999
2012-03-09 08:28:04 51°14.009 2°55.594 268.6 2.7 75 -999
2012-03-09 08:28:09 51°14.01 2°55.598 270.8 2 74 -999
2012-03-09 08:28:14 51°14.011 2°55.6 273.3 1.1 54 -999
2012-03-09 08:28:19 51°14.011 2°55.599 277.4 0.7 328 -999
2012-03-09 08:28:24 51°14.013 2°55.595 284.7 1.9 303 -999
2012-03-09 08:28:29 51°14.015 2°55.59 290.6 3 301 -999
2012-03-09 08:28:34 51°14.018 2°55.583 293.5 3.9 301 -999
2012-03-09 08:28:39 51°14.021 2°55.573 294.8 4.8 297 -999
2012-03-09 08:28:44 51°14.026 2°55.563 295.6 5.6 303 9.2
2012-03-09 08:28:48 51°14.03 2°55.554 297.6 6.4 305 9.1
2012-03-09 08:28:53 51°14.036 2°55.542 299.8 7 306 9.3
2012-03-09 08:28:59 51°14.043 2°55.526 302.4 7.5 307 -999
2012-03-09 08:29:04 51°14.05 2°55.512 305.3 7.8 309 9.1
2012-03-09 08:29:08 51°14.056 2°55.502 307.9 8.1 313 9.1
2012-03-09 08:29:13 51°14.064 2°55.489 310.5 8.2 316 9.2
2012-03-09 08:29:18 51°14.073 2°55.478 314.4 8.3 320 9.2
2012-03-09 08:29:23 51°14.082 2°55.466 319 8.2 323 9.1
2012-03-09 08:29:28 51°14.091 2°55.456 323.1 8.2 324 9.2
2012-03-09 08:29:32 51°14.099 2°55.448 325.3 8.3 327 9.2
2012-03-09 08:29:37 51°14.109 2°55.439 327.4 8.3 329 9.4
2012-03-09 08:29:42 51°14.12 2°55.431 329 8.5 329 9.2
2012-03-09 08:29:47 51°14.129 2°55.421 329.2 8.3 328 9.1
2012-03-09 08:29:52 51°14.139 2°55.411 328.9 8.3 327 -999
2012-03-09 08:29:57 51°14.148 2°55.401 329.1 8.3 329 9.1
2012-03-09 08:30:03 51°14.159 2°55.389 329.4 8.1 328 -999
2012-03-09 08:30:08 51°14.168 2°55.379 329.2 8.1 327 9.1
2012-03-09 08:30:13 51°14.178 2°55.37 329.6 8.2 329 9.1
2012-03-09 08:30:18 51°14.188 2°55.361 330.3 8.1 329 9.2
2012-03-09 08:30:23 51°14.198 2°55.352 330.8 8.1 330 9.1
2012-03-09 08:30:28 51°14.208 2°55.342 331.1 8.2 329 9.2
2012-03-09 08:30:32 51°14.216 2°55.335 331.1 8.2 329 9.2
2012-03-09 08:30:38 51°14.227 2°55.323 330.9 8.2 329 9.2
2012-03-09 08:30:44 51°14.239 2°55.312 331.5 8.1 329 -999
2012-03-09 08:30:49 51°14.249 2°55.303 331.8 8.1 330 -999
2012-03-09 08:30:54 51°14.259 2°55.295 332 8.1 329 -999
2012-03-09 08:30:59 51°14.269 2°55.286 331.5 8.1 328 -999
2012-03-09 08:31:04 51°14.278 2°55.277 331.3 8.1 330 -999
2012-03-09 08:31:09 51°14.288 2°55.268 331.3 8 330 -999
2012-03-09 08:31:13 51°14.296 2°55.261 331.4 8 331 8.9
2012-03-09 08:31:19 51°14.307 2°55.25 331.8 8 329 -999
2012-03-09 08:31:24 51°14.317 2°55.242 331.8 8 330 -999
2012-03-09 08:31:29 51°14.327 2°55.233 331.6 8 331 -999
2012-03-09 08:31:33 51°14.334 2°55.225 331 8.1 330 9.3
2012-03-09 08:31:39 51°14.346 2°55.214 330.8 8.1 331 -999
2012-03-09 08:31:44 51°14.355 2°55.205 330.8 8 329 9.3
2012-03-09 08:31:48 51°14.363 2°55.197 331 8 330 9.3
2012-03-09 08:31:53 51°14.372 2°55.189 331.3 8 331 -999
2012-03-09 08:31:58 51°14.382 2°55.18 331.4 8.1 330 9.4
2012-03-09 08:32:03 51°14.391 2°55.171 330.7 8.1 330 9
2012-03-09 08:32:08 51°14.401 2°55.161 330.3 8.1 329 9.1
2012-03-09 08:32:13 51°14.411 2°55.153 330.4 8.1 330 9.4
2012-03-09 08:32:18 51°14.421 2°55.144 330.9 8.1 331 9.5
2012-03-09 08:32:23 51°14.43 2°55.136 331.7 8.1 333 9.5
2012-03-09 08:32:28 51°14.44 2°55.128 332.8 8 332 9.5
2012-03-09 08:32:32 51°14.449 2°55.122 333.5 8.1 333 9.4
2012-03-09 08:32:38 51°14.461 2°55.112 333.5 8.2 331 9.7
2012-03-09 08:32:43 51°14.47 2°55.103 332.2 8.1 330 -999
2012-03-09 08:32:48 51°14.48 2°55.094 331 8.2 330 9.6
2012-03-09 08:32:52 51°14.488 2°55.086 330.8 8.5 330 9.8
2012-03-09 08:32:57 51°14.499 2°55.076 331.1 8.9 330 9.7
2012-03-09 08:33:03 51°14.512 2°55.064 331.3 9.2 329 9.7
2012-03-09 08:33:08 51°14.523 2°55.053 331.3 9.5 328 9.5
2012-03-09 08:33:12 51°14.532 2°55.044 331.1 9.6 327 9.9
2012-03-09 08:33:17 51°14.542 2°55.032 330.3 9.6 325 10.1
2012-03-09 08:33:22 51°14.553 2°55.019 329.4 9.8 325 10.4
2012-03-09 08:33:27 51°14.565 2°55.007 329.4 10 325 10.4
2012-03-09 08:33:32 51°14.576 2°54.994 330 10 325 10.6
2012-03-09 08:33:36 51°14.585 2°54.983 329.4 10.1 323 10.7
2012-03-09 08:33:41 51°14.597 2°54.969 327.4 10.2 323 10.7
2012-03-09 08:33:46 51°14.608 2°54.955 326.9 10.3 323 10.6
2012-03-09 08:33:51 51°14.62 2°54.942 327.6 10.4 324 10.5
2012-03-09 08:33:56 51°14.632 2°54.928 328.5 10.5 324 10.5
2012-03-09 08:34:00 51°14.641 2°54.918 329.1 10.5 325 10.5
2012-03-09 08:34:05 51°14.653 2°54.904 329.6 10.5 325 10.3
2012-03-09 08:34:10 51°14.665 2°54.891 331 10.5 328 10.4
2012-03-09 08:34:15 51°14.677 2°54.879 333 10.6 327 10.3
2012-03-09 08:34:20 51°14.689 2°54.866 333.1 10.5 327 10.3
2012-03-09 08:34:25 51°14.702 2°54.854 332.6 10.5 328 10.2
2012-03-09 08:34:30 51°14.715 2°54.842 333.2 10.6 329 10.3
2012-03-09 08:34:35 51°14.727 2°54.829 333.9 10.5 328 10.3
2012-03-09 08:34:40 51°14.74 2°54.818 334.2 10.7 329 10.3
2012-03-09 08:34:45 51°14.753 2°54.807 336.1 10.6 332 10.2
2012-03-09 08:34:50 51°14.766 2°54.797 339.1 10.5 335 10.1
2012-03-09 08:34:56 51°14.782 2°54.785 341.5 10.5 336 10.2
2012-03-09 08:35:00 51°14.793 2°54.778 342.3 10.5 336 10.2
2012-03-09 08:35:05 51°14.807 2°54.77 343.1 10.6 338 10.2
2012-03-09 08:35:10 51°14.821 2°54.761 343.4 10.8 340 10.1
2012-03-09 08:35:15 51°14.835 2°54.754 345.5 10.7 343 9.8
2012-03-09 08:35:20 51°14.849 2°54.748 349.2 10.7 346 9.4
2012-03-09 08:35:25 51°14.864 2°54.743 352.1 10.8 347 9.5
2012-03-09 08:35:30 51°14.878 2°54.739 353.5 10.8 350 9.2
2012-03-09 08:35:35 51°14.893 2°54.735 355.2 10.9 351 9
2012-03-09 08:35:40 51°14.908 2°54.732 356.7 10.9 351 8.8
2012-03-09 08:35:45 51°14.923 2°54.729 357.6 10.9 353 8.7
2012-03-09 08:35:50 51°14.938 2°54.725 357.2 10.9 351 8.6
2012-03-09 08:35:55 51°14.953 2°54.722 357.2 10.9 353 8.6
2012-03-09 08:36:00 51°14.968 2°54.72 358.6 10.9 354 8.5
2012-03-09 08:36:05 51°14.983 2°54.717 359.6 10.9 354 8.4
2012-03-09 08:36:10 51°14.999 2°54.715 359.5 11.1 354 8.2
2012-03-09 08:36:15 51°15.014 2°54.712 359.2 11 355 8.2
2012-03-09 08:36:20 51°15.029 2°54.711 359.9 10.9 357 8.1
2012-03-09 08:36:25 51°15.044 2°54.709 1.2 10.9 355 7.8
2012-03-09 08:36:30 51°15.059 2°54.706 0.5 10.9 354 7.8
2012-03-09 08:36:36 51°15.077 2°54.703 -999 10.9 354 5.7
2012-03-09 08:36:40 51°15.088 2°54.701 359.8 10.8 354 7.4
2012-03-09 08:36:45 51°15.103 2°54.7 0.5 10.8 356 7.4
2012-03-09 08:36:50 51°15.118 2°54.698 1.3 10.7 356 7.2
2012-03-09 08:36:56 51°15.136 2°54.697 2.4 10.6 357 7.4
2012-03-09 08:37:00 51°15.147 2°54.695 1.7 10.6 354 7.2
2012-03-09 08:37:05 51°15.162 2°54.692 0.4 10.7 353 7.2
2012-03-09 08:37:10 51°15.177 2°54.689 359.4 10.8 351 7.3
2012-03-09 08:37:15 51°15.192 2°54.685 356.9 10.9 349 7.4
2012-03-09 08:37:20 51°15.206 2°54.679 354.1 10.8 347 7.3
2012-03-09 08:37:25 51°15.221 2°54.672 352.7 10.8 346 7.5
2012-03-09 08:37:30 51°15.236 2°54.666 351.1 11 344 7.6
2012-03-09 08:37:35 51°15.25 2°54.658 350.2 10.9 343 7.6
2012-03-09 08:37:40 51°15.264 2°54.651 349.2 11.1 343 5.8
2012-03-09 08:37:45 51°15.279 2°54.644 348.8 11.1 343 7.7
2012-03-09 08:37:50 51°15.294 2°54.637 348.8 11 343 7.7
2012-03-09 08:37:55 51°15.308 2°54.63 349.2 10.6 343 7.7
2012-03-09 08:38:00 51°15.322 2°54.625 349.9 10.2 345 5.8
2012-03-09 08:38:05 51°15.335 2°54.62 352.1 9.7 347 8
2012-03-09 08:38:10 51°15.347 2°54.615 353.5 9.3 348 8.1
2012-03-09 08:38:15 51°15.359 2°54.612 355.7 8.7 349 8.2
2012-03-09 08:38:20 51°15.37 2°54.609 356.8 8.3 350 8.3
2012-03-09 08:38:25 51°15.381 2°54.606 357.9 7.8 352 8.2
2012-03-09 08:38:30 51°15.391 2°54.604 358.9 7.4 351 8.4
2012-03-09 08:38:35 51°15.401 2°54.601 359.4 7 351 8.4
2012-03-09 08:38:40 51°15.41 2°54.599 359.7 6.9 350 8.3
2012-03-09 08:38:45 51°15.419 2°54.596 359.7 6.6 350 8.3
2012-03-09 08:38:50 51°15.428 2°54.594 359.1 6.4 350 8.5
2012-03-09 08:38:56 51°15.438 2°54.59 357.7 6.2 348 8.4
2012-03-09 08:39:00 51°15.444 2°54.587 356.4 6 347 8.4
2012-03-09 08:39:05 51°15.452 2°54.584 354.9 5.9 344 8.4
2012-03-09 08:39:10 51°15.459 2°54.58 353.6 5.8 343 8.6
2012-03-09 08:39:16 51°15.468 2°54.575 351.7 5.6 340 8.6
2012-03-09 08:39:20 51°15.474 2°54.571 350.4 5.4 338 8.6
2012-03-09 08:39:25 51°15.481 2°54.566 348.9 5.4 337 8.6
2012-03-09 08:39:30 51°15.488 2°54.562 347.4 5.3 337 8.7
2012-03-09 08:39:35 51°15.494 2°54.557 346.1 5.2 334 8.7
2012-03-09 08:39:40 51°15.5 2°54.551 344.2 5.2 333 8.8
2012-03-09 08:39:45 51°15.507 2°54.546 342.8 5.1 331 8.7
2012-03-09 08:39:50 51°15.513 2°54.54 341.9 5.1 331 8.7
2012-03-09 08:39:55 51°15.519 2°54.534 340.9 5.1 329 8.7
2012-03-09 08:40:00 51°15.525 2°54.528 340 5 329 8.8
2012-03-09 08:40:05 51°15.531 2°54.523 339.4 5 327 8.9
2012-03-09 08:40:10 51°15.536 2°54.516 339.2 5 326 8.8
2012-03-09 08:40:15 51°15.542 2°54.511 338.8 5 328 9
2012-03-09 08:40:20 51°15.548 2°54.505 338.7 4.9 327 8.9
2012-03-09 08:40:25 51°15.554 2°54.499 338.8 4.9 328 9
2012-03-09 08:40:30 51°15.56 2°54.493 339 5 328 9
2012-03-09 08:40:35 51°15.566 2°54.488 339.1 5 328 9.1
2012-03-09 08:40:40 51°15.572 2°54.482 339.2 5 328 8.9
2012-03-09 08:40:45 51°15.578 2°54.476 339.3 4.9 328 9
2012-03-09 08:40:51 51°15.585 2°54.469 339.6 4.9 329 9
2012-03-09 08:40:55 51°15.589 2°54.464 339.8 4.9 327 9
2012-03-09 08:41:00 51°15.595 2°54.458 340.1 4.9 327 9
2012-03-09 08:41:05 51°15.601 2°54.453 340.5 5 330 9
2012-03-09 08:41:10 51°15.606 2°54.446 340.9 5 328 9.1
2012-03-09 08:41:15 51°15.612 2°54.441 341.2 5 330 9.1
2012-03-09 08:41:20 51°15.619 2°54.435 341.5 5.1 330 9.1
2012-03-09 08:41:25 51°15.625 2°54.429 341.8 5.1 329 9.1
2012-03-09 08:41:30 51°15.631 2°54.424 341.8 5.1 329 9.2
2012-03-09 08:41:35 51°15.637 2°54.418 341.8 5.1 329 9.1
2012-03-09 08:41:40 51°15.643 2°54.413 341.8 5.2 329 9.2
2012-03-09 08:41:45 51°15.65 2°54.408 341.8 5.2 331 9.2
2012-03-09 08:41:50 51°15.656 2°54.402 341.9 5.2 332 9.3
2012-03-09 08:41:55 51°15.663 2°54.396 342 5.2 331 9.3
2012-03-09 08:42:00 51°15.669 2°54.391 342.2 5.2 331 9.2
2012-03-09 08:42:05 51°15.675 2°54.385 342.4 5.2 330 9.3
2012-03-09 08:42:10 51°15.681 2°54.379 342.4 5.2 331 9.3
2012-03-09 08:42:15 51°15.688 2°54.374 342.7 5.3 330 9.3
2012-03-09 08:42:20 51°15.694 2°54.368 342.9 5.3 331 9.3
2012-03-09 08:42:25 51°15.7 2°54.362 343.2 5.3 331 9.3
2012-03-09 08:42:30 51°15.707 2°54.357 343.4 5.4 331 9.3
2012-03-09 08:42:35 51°15.713 2°54.351 344.1 5.4 332 9.3
2012-03-09 08:42:40 51°15.72 2°54.346 344.6 5.3 333 9.3
2012-03-09 08:42:45 51°15.726 2°54.34 345.2 5.3 333 9.3
2012-03-09 08:42:50 51°15.733 2°54.335 345.4 5.3 333 9.4
2012-03-09 08:42:55 51°15.74 2°54.33 345.8 5.3 333 9.5
2012-03-09 08:43:00 51°15.746 2°54.325 346.3 5.3 333 9.4
2012-03-09 08:43:05 51°15.753 2°54.32 346.8 5.3 334 9.4
2012-03-09 08:43:10 51°15.759 2°54.315 347.3 5.3 335 9.4
2012-03-09 08:43:15 51°15.766 2°54.31 347.7 5.3 335 9.5
2012-03-09 08:43:20 51°15.773 2°54.305 348.1 5.3 335 9.5
2012-03-09 08:43:25 51°15.78 2°54.3 348 5.3 335 9.5
2012-03-09 08:43:30 51°15.786 2°54.295 347.7 5.3 336 9.5
2012-03-09 08:43:36 51°15.794 2°54.289 347.4 5.3 334 9.5
2012-03-09 08:43:40 51°15.799 2°54.285 347 5.3 334 9.5
2012-03-09 08:43:45 51°15.806 2°54.28 346.6 5.3 335 9.4
2012-03-09 08:43:50 51°15.813 2°54.274 346.3 5.3 334 9.6
2012-03-09 08:43:55 51°15.819 2°54.269 346.2 5.3 334 9.5
2012-03-09 08:44:00 51°15.826 2°54.264 346.1 5.3 333 9.6
2012-03-09 08:44:05 51°15.832 2°54.258 346 5.3 332 9.6
2012-03-09 08:44:10 51°15.839 2°54.253 345.7 5.3 331 9.5
2012-03-09 08:44:15 51°15.846 2°54.248 345.4 5.4 333 9.6
2012-03-09 08:44:20 51°15.852 2°54.241 344.6 5.4 331 9.7
2012-03-09 08:44:25 51°15.858 2°54.235 343.8 5.3 329 9.6
2012-03-09 08:44:30 51°15.865 2°54.229 343 5.4 329 9.6
2012-03-09 08:44:35 51°15.871 2°54.223 342.2 5.4 328 9.6
2012-03-09 08:44:40 51°15.878 2°54.217 341.6 5.4 328 9.6
2012-03-09 08:44:45 51°15.884 2°54.211 341 5.4 328 9.8
2012-03-09 08:44:50 51°15.89 2°54.204 340.5 5.5 327 9.8
2012-03-09 08:44:55 51°15.897 2°54.197 339.9 5.5 326 9.8
2012-03-09 08:45:00 51°15.903 2°54.19 339.4 5.4 326 9.7
2012-03-09 08:45:04 51°15.908 2°54.185 339 5.4 325 9.8
2012-03-09 08:45:10 51°15.915 2°54.177 338.5 5.4 325 9.8
2012-03-09 08:45:15 51°15.922 2°54.17 338 5.5 326 9.7
2012-03-09 08:45:20 51°15.928 2°54.163 337.5 5.5 325 9.8
2012-03-09 08:45:25 51°15.934 2°54.155 336.9 5.4 322 9.8
2012-03-09 08:45:30 51°15.94 2°54.148 336.2 5.5 322 9.8
2012-03-09 08:45:36 51°15.947 2°54.139 335.6 5.5 321 10
2012-03-09 08:45:40 51°15.951 2°54.133 335 5.5 321 10
2012-03-09 08:45:45 51°15.958 2°54.125 334.5 5.5 321 9.9
2012-03-09 08:45:50 51°15.963 2°54.117 334.1 5.5 320 9.9
2012-03-09 08:45:56 51°15.97 2°54.108 334 5.5 321 9.9
2012-03-09 08:46:00 51°15.975 2°54.102 333.8 5.5 321 9.9
2012-03-09 08:46:05 51°15.981 2°54.094 334 5.5 319 10
2012-03-09 08:46:10 51°15.987 2°54.087 334 5.6 321 9.9
2012-03-09 08:46:15 51°15.993 2°54.079 334.4 5.5 322 10
2012-03-09 08:46:20 51°15.999 2°54.071 334.7 5.5 321 10
2012-03-09 08:46:25 51°16.005 2°54.064 335.1 5.6 322 10
2012-03-09 08:46:30 51°16.011 2°54.057 335.4 5.5 322 10.1
2012-03-09 08:46:36 51°16.019 2°54.048 335.4 5.5 323 10.1
2012-03-09 08:46:40 51°16.024 2°54.042 335.6 5.4 323 10.1
2012-03-09 08:46:45 51°16.03 2°54.035 335.9 5.5 323 10.2
2012-03-09 08:46:50 51°16.036 2°54.027 336.1 5.5 324 10.1
2012-03-09 08:46:56 51°16.043 2°54.018 336.1 5.5 323 10.2
2012-03-09 08:47:00 51°16.047 2°54.012 336.1 5.4 323 10.2
2012-03-09 08:47:05 51°16.054 2°54.005 336.1 5.5 324 10.2
2012-03-09 08:47:11 51°16.061 2°53.997 336.2 5.5 325 10.2
2012-03-09 08:47:16 51°16.067 2°53.99 336.3 5.5 324 10.2
2012-03-09 08:47:20 51°16.072 2°53.984 336.6 5.5 324 10.2
2012-03-09 08:47:25 51°16.078 2°53.977 337 5.5 324 10.2
2012-03-09 08:47:30 51°16.084 2°53.97 337.5 5.4 325 10.1
2012-03-09 08:47:35 51°16.09 2°53.963 337.9 5.4 324 10.1
2012-03-09 08:47:40 51°16.097 2°53.956 338.3 5.3 325 10.3
2012-03-09 08:47:45 51°16.103 2°53.951 338.9 5.3 327 10.2
2012-03-09 08:47:50 51°16.11 2°53.945 339.4 5.3 328 10.3
2012-03-09 08:47:56 51°16.117 2°53.937 339.8 5.3 328 10.2
2012-03-09 08:48:00 51°16.122 2°53.932 340.3 5.3 329 10.3
2012-03-09 08:48:04 51°16.127 2°53.927 340.5 5.2 329 10.3
2012-03-09 08:48:10 51°16.134 2°53.92 340.6 5.3 328 10.4
2012-03-09 08:48:16 51°16.142 2°53.912 340.7 5.3 328 10.4
2012-03-09 08:48:20 51°16.146 2°53.907 340.7 5.3 328 10.3
2012-03-09 08:48:25 51°16.153 2°53.901 340.5 5.3 328 10.4
2012-03-09 08:48:30 51°16.159 2°53.895 340.3 5.3 327 10.3
2012-03-09 08:48:35 51°16.165 2°53.888 340 5.2 326 10.4
2012-03-09 08:48:40 51°16.171 2°53.882 339.7 5.2 327 10.4
2012-03-09 08:48:45 51°16.177 2°53.876 339.5 5.3 327 10.4
2012-03-09 08:48:50 51°16.184 2°53.87 339.2 5.3 327 10.6
2012-03-09 08:48:55 51°16.19 2°53.864 339.3 5.3 327 10.5
2012-03-09 08:49:00 51°16.196 2°53.857 339.2 5.3 327 10.5
2012-03-09 08:49:05 51°16.203 2°53.851 339.1 5.3 327 10.5
2012-03-09 08:49:10 51°16.209 2°53.844 339 5.3 326 10.5
2012-03-09 08:49:15 51°16.214 2°53.837 339 5.3 325 10.5
2012-03-09 08:49:20 51°16.22 2°53.831 338.7 5.2 326 10.6
2012-03-09 08:49:25 51°16.226 2°53.824 338.6 5.2 325 10.7
2012-03-09 08:49:30 51°16.232 2°53.817 338.3 5.2 325 10.8
2012-03-09 08:49:36 51°16.239 2°53.809 338.2 5.3 326 10.8
2012-03-09 08:49:40 51°16.244 2°53.804 338 5.3 326 10.7
2012-03-09 08:49:45 51°16.25 2°53.798 337.9 5.3 325 10.8
2012-03-09 08:49:50 51°16.256 2°53.791 337.9 5.3 326 10.8
2012-03-09 08:49:55 51°16.262 2°53.784 338 5.2 325 10.8
2012-03-09 08:50:00 51°16.269 2°53.778 337.6 5.3 325 10.8
2012-03-09 08:50:05 51°16.274 2°53.77 336.8 5.3 323 10.9
2012-03-09 08:50:10 51°16.28 2°53.764 336.2 5.3 322 10.8
2012-03-09 08:50:16 51°16.287 2°53.756 335.2 5.3 322 10.8
2012-03-09 08:50:20 51°16.292 2°53.75 333.7 5.3 322 10.8
2012-03-09 08:50:24 51°16.296 2°53.744 332.5 5.3 321 11
2012-03-09 08:50:30 51°16.303 2°53.735 331.4 5.3 319 11.1
2012-03-09 08:50:35 51°16.309 2°53.727 330.3 5.3 319 11.1
2012-03-09 08:50:40 51°16.314 2°53.719 329.2 5.4 318 11
2012-03-09 08:50:45 51°16.32 2°53.711 328.2 5.4 316 11.1
2012-03-09 08:50:50 51°16.325 2°53.702 327.2 5.4 315 11.1
2012-03-09 08:50:55 51°16.33 2°53.693 326 5.4 313 11.1
2012-03-09 08:51:00 51°16.335 2°53.684 325.1 5.4 313 11.2
2012-03-09 08:51:05 51°16.34 2°53.675 324.1 5.4 312 11.2
2012-03-09 08:51:10 51°16.345 2°53.666 323.1 5.5 311 11.1
2012-03-09 08:51:15 51°16.35 2°53.657 322.3 5.5 310 11.1
2012-03-09 08:51:20 51°16.355 2°53.647 321.3 5.5 309 11.1
2012-03-09 08:51:25 51°16.36 2°53.638 320.7 5.6 309 11.2
2012-03-09 08:51:30 51°16.364 2°53.628 320.2 5.6 308 11.2
2012-03-09 08:51:35 51°16.369 2°53.618 320 5.6 308 11.1
2012-03-09 08:51:40 51°16.374 2°53.609 319.8 5.6 308 11.2
2012-03-09 08:51:45 51°16.379 2°53.6 319.5 5.6 309 11.2
2012-03-09 08:51:50 51°16.383 2°53.589 319.4 5.6 308 11.2
2012-03-09 08:51:55 51°16.388 2°53.58 319.7 5.7 309 11.2
2012-03-09 08:52:00 51°16.393 2°53.57 320.1 5.6 309 11.2
2012-03-09 08:52:05 51°16.398 2°53.56 320.3 5.6 309 11.2
2012-03-09 08:52:10 51°16.403 2°53.55 320.8 5.7 310 11.2
2012-03-09 08:52:15 51°16.408 2°53.541 321.6 5.7 310 11.2
2012-03-09 08:52:20 51°16.413 2°53.531 322.3 5.6 310 11.2
2012-03-09 08:52:25 51°16.419 2°53.523 323.1 5.6 312 11.2
2012-03-09 08:52:30 51°16.424 2°53.514 323.8 5.6 313 11.2
2012-03-09 08:52:36 51°16.43 2°53.502 324.5 5.6 313 11.2
2012-03-09 08:52:40 51°16.434 2°53.495 325.1 5.6 313 11.2
2012-03-09 08:52:45 51°16.44 2°53.487 325.5 5.6 316 11.3
2012-03-09 08:52:50 51°16.445 2°53.478 325.9 5.6 315 11.3
2012-03-09 08:52:55 51°16.45 2°53.468 326.3 5.6 314 11.3
2012-03-09 08:53:00 51°16.456 2°53.46 326.7 5.5 315 11.4
2012-03-09 08:53:05 51°16.461 2°53.451 326.9 5.5 315 11.3
2012-03-09 08:53:10 51°16.467 2°53.443 327.1 5.5 315 11.3
2012-03-09 08:53:15 51°16.473 2°53.435 327.4 5.5 317 11.4
2012-03-09 08:53:20 51°16.479 2°53.427 327.7 5.5 317 11.3
2012-03-09 08:53:25 51°16.484 2°53.419 327.8 5.5 317 11.3
2012-03-09 08:53:30 51°16.49 2°53.411 328.1 5.4 316 11.5
2012-03-09 08:53:35 51°16.495 2°53.402 328.3 5.4 318 11.4
2012-03-09 08:53:40 51°16.501 2°53.394 328.5 5.4 317 11.4
2012-03-09 08:53:45 51°16.507 2°53.386 328.7 5.4 318 11.3
2012-03-09 08:53:50 51°16.512 2°53.378 329 5.4 317 11.2
2012-03-09 08:53:55 51°16.518 2°53.37 329.2 5.4 318 11.3
2012-03-09 08:54:00 51°16.523 2°53.363 329.5 5.4 318 11.2
2012-03-09 08:54:05 51°16.529 2°53.355 329.6 5.4 318 11.3
2012-03-09 08:54:10 51°16.534 2°53.347 329.8 5.3 319 11.2
2012-03-09 08:54:15 51°16.54 2°53.339 330.2 5.3 320 11.3
2012-03-09 08:54:20 51°16.546 2°53.332 330.6 5.3 321 11.3
2012-03-09 08:54:25 51°16.552 2°53.325 331 5.3 322 11.1
2012-03-09 08:54:30 51°16.557 2°53.318 331.4 5.3 322 11.2
2012-03-09 08:54:36 51°16.564 2°53.308 331.7 5.3 321 11.1
2012-03-09 08:54:40 51°16.569 2°53.302 331.9 5.3 322 11.1
2012-03-09 08:54:45 51°16.574 2°53.295 331.9 5.3 321 11.2
2012-03-09 08:54:50 51°16.58 2°53.288 331.9 5.3 321 11.2
2012-03-09 08:54:56 51°16.587 2°53.279 331.7 5.3 321 11.2
2012-03-09 08:55:00 51°16.591 2°53.273 331.6 5.3 321 11.3
2012-03-09 08:55:05 51°16.597 2°53.265 331.3 5.3 321 11.3
2012-03-09 08:55:10 51°16.603 2°53.258 331.3 5.3 322 11.3
2012-03-09 08:55:15 51°16.609 2°53.251 331.3 5.2 322 11.3
2012-03-09 08:55:20 51°16.614 2°53.244 331.3 5.2 322 11.3
2012-03-09 08:55:25 51°16.619 2°53.235 331.1 5.3 319 11.3
2012-03-09 08:55:30 51°16.625 2°53.228 330.8 5.3 319 11.1
2012-03-09 08:55:35 51°16.63 2°53.22 330.1 5.3 319 11
2012-03-09 08:55:40 51°16.636 2°53.213 329.4 5.3 318 11
2012-03-09 08:55:45 51°16.641 2°53.205 328.9 5.3 318 10.9
2012-03-09 08:55:50 51°16.647 2°53.197 328.4 5.3 317 10.8
2012-03-09 08:55:55 51°16.652 2°53.189 327.7 5.3 317 10.9
2012-03-09 08:56:00 51°16.658 2°53.181 327 5.3 316 10.9
2012-03-09 08:56:05 51°16.663 2°53.172 326.4 5.3 315 10.8
2012-03-09 08:56:10 51°16.668 2°53.164 326 5.3 314 10.9
2012-03-09 08:56:15 51°16.673 2°53.155 325.4 5.3 314 10.8
2012-03-09 08:56:20 51°16.677 2°53.147 325.1 5.3 315 10.8
2012-03-09 08:56:25 51°16.683 2°53.138 325.1 5.3 314 10.8
2012-03-09 08:56:30 51°16.688 2°53.13 325.3 5.3 314 10.9
2012-03-09 08:56:36 51°16.694 2°53.12 325.8 5.3 316 10.9
2012-03-09 08:56:40 51°16.698 2°53.114 326 5.3 316 10.8
2012-03-09 08:56:45 51°16.703 2°53.106 326.6 5.2 317 10.8
2012-03-09 08:56:50 51°16.709 2°53.097 327.1 5.2 317 10.7
2012-03-09 08:56:56 51°16.715 2°53.088 327.5 5.3 317 10.7
2012-03-09 08:57:00 51°16.719 2°53.081 327.6 5.2 316 10.6
2012-03-09 08:57:05 51°16.725 2°53.073 327.6 5.3 317 10.5
2012-03-09 08:57:10 51°16.73 2°53.066 327.6 5.3 317 10.6
2012-03-09 08:57:15 51°16.736 2°53.058 328.1 5.2 319 10.5
2012-03-09 08:57:20 51°16.741 2°53.05 328.6 5.2 319 10.5
2012-03-09 08:57:25 51°16.746 2°53.042 329.4 5.3 318 10.3
2012-03-09 08:57:30 51°16.752 2°53.035 329.7 5.3 320 10.3
2012-03-09 08:57:35 51°16.758 2°53.028 330.3 5.2 320 10.2
2012-03-09 08:57:40 51°16.763 2°53.02 330.6 5.2 319 10.2
2012-03-09 08:57:45 51°16.769 2°53.013 331.1 5.2 322 10.1
2012-03-09 08:57:50 51°16.774 2°53.006 331.4 5.2 320 10
2012-03-09 08:57:55 51°16.779 2°52.998 331.7 5.2 320 9.8
2012-03-09 08:58:00 51°16.785 2°52.99 331.7 5.2 320 9.6
2012-03-09 08:58:05 51°16.79 2°52.983 331.8 5.2 321 9.5
2012-03-09 08:58:10 51°16.796 2°52.976 332 5.2 321 9.4
2012-03-09 08:58:15 51°16.802 2°52.969 332.1 5.2 321 9.4
2012-03-09 08:58:20 51°16.807 2°52.962 332.4 5.2 321 9.1
2012-03-09 08:58:25 51°16.813 2°52.955 332.5 5.1 322 9
2012-03-09 08:58:30 51°16.818 2°52.947 332.5 5.1 321 8.9
2012-03-09 08:58:35 51°16.824 2°52.941 332.8 5.2 322 8.7
2012-03-09 08:58:40 51°16.83 2°52.934 333 5.2 322 8.7
2012-03-09 08:58:45 51°16.835 2°52.927 333.2 5.2 322 8.7
2012-03-09 08:58:50 51°16.841 2°52.92 333.7 5.1 323 8.6
2012-03-09 08:58:55 51°16.846 2°52.913 334 5 324 8.6
2012-03-09 08:59:00 51°16.852 2°52.906 334.6 5.1 324 8.6
2012-03-09 08:59:05 51°16.858 2°52.899 334.9 5.1 323 8.5
2012-03-09 08:59:10 51°16.863 2°52.893 334.9 5.1 322 8.6
2012-03-09 08:59:16 51°16.87 2°52.885 335.1 5.1 324 8.5
2012-03-09 08:59:20 51°16.875 2°52.88 335.3 5 324 8.6
2012-03-09 08:59:25 51°16.88 2°52.873 335.4 5 323 8.4
2012-03-09 08:59:30 51°16.886 2°52.866 335.4 5.1 322 8.5
2012-03-09 08:59:35 51°16.892 2°52.86 335.2 5.1 323 8.7
2012-03-09 08:59:40 51°16.897 2°52.853 335.1 5 322 8.6
2012-03-09 08:59:45 51°16.903 2°52.847 334.7 5.1 325 8.7
2012-03-09 08:59:50 51°16.909 2°52.841 334.3 5.1 326 8.7
2012-03-09 08:59:55 51°16.914 2°52.833 334.2 5 320 8.6
2012-03-09 09:00:00 51°16.919 2°52.826 333.9 5 320 8.7
2012-03-09 09:00:05 51°16.924 2°52.818 333.5 5 320 8.8
2012-03-09 09:00:10 51°16.929 2°52.811 333.2 5 321 8.7
2012-03-09 09:00:15 51°16.935 2°52.804 332.9 5 319 8.8
2012-03-09 09:00:20 51°16.94 2°52.797 332.6 5 320 8.9
2012-03-09 09:00:25 51°16.945 2°52.789 332.5 5 319 8.9
2012-03-09 09:00:30 51°16.95 2°52.782 332.4 5 319 9
2012-03-09 09:00:35 51°16.956 2°52.775 332.3 5 318 8.9
2012-03-09 09:00:40 51°16.961 2°52.767 332.4 5 318 9
2012-03-09 09:00:45 51°16.966 2°52.76 332.3 5 319 9
2012-03-09 09:00:50 51°16.971 2°52.753 332.1 5 317 9.2
2012-03-09 09:00:56 51°16.978 2°52.745 331.8 5 319 9.1
2012-03-09 09:01:00 51°16.982 2°52.739 331.6 5 318 9.1
2012-03-09 09:01:05 51°16.987 2°52.731 331.4 5 319 9.2
2012-03-09 09:01:10 51°16.992 2°52.723 331.5 5 319 9.3
2012-03-09 09:01:16 51°16.998 2°52.715 331.5 5 319 9.1
2012-03-09 09:01:20 51°17.002 2°52.709 331.2 5.1 319 9.3
2012-03-09 09:01:25 51°17.007 2°52.701 331.2 5 319 9.3
2012-03-09 09:01:30 51°17.013 2°52.694 331.2 5 318 9.2
2012-03-09 09:01:35 51°17.018 2°52.686 331 5 318 9.5
2012-03-09 09:01:40 51°17.023 2°52.679 331.1 5 320 9.3
2012-03-09 09:01:45 51°17.028 2°52.672 331.2 5 320 9.3
2012-03-09 09:01:50 51°17.033 2°52.664 331.6 5 317 9.4
2012-03-09 09:01:55 51°17.037 2°52.656 331.9 4.9 319 9.4
2012-03-09 09:02:00 51°17.043 2°52.649 332.5 4.9 320 9.2
2012-03-09 09:02:05 51°17.049 2°52.643 333.1 5 320 9.2
2012-03-09 09:02:10 51°17.054 2°52.637 333.8 5 321 9.1
2012-03-09 09:02:15 51°17.06 2°52.63 334.1 4.8 321 9.2
2012-03-09 09:02:20 51°17.065 2°52.623 334.6 4.9 320 9.1
2012-03-09 09:02:25 51°17.07 2°52.616 334.9 4.9 320 9.1
2012-03-09 09:02:30 51°17.076 2°52.61 335.4 4.9 322 9.2
2012-03-09 09:02:35 51°17.081 2°52.603 335.9 4.9 324 9.2
2012-03-09 09:02:40 51°17.086 2°52.597 336.5 4.8 325 9.2
2012-03-09 09:02:45 51°17.092 2°52.59 337.1 4.9 324 9.1
2012-03-09 09:02:50 51°17.097 2°52.584 337.9 4.9 325 9
2012-03-09 09:02:55 51°17.103 2°52.578 338.4 4.8 326 9.4
2012-03-09 09:03:00 51°17.109 2°52.572 339 4.8 327 9.1
2012-03-09 09:03:05 51°17.114 2°52.566 339.7 4.8 327 9.1
2012-03-09 09:03:10 51°17.12 2°52.561 340.2 4.8 329 9.3
2012-03-09 09:03:15 51°17.125 2°52.555 340.5 4.8 330 9.2
2012-03-09 09:03:20 51°17.131 2°52.549 340.5 4.9 327 9.1
2012-03-09 09:03:25 51°17.137 2°52.543 340.5 4.9 327 9.2
2012-03-09 09:03:30 51°17.142 2°52.537 340.4 4.9 327 9.2
2012-03-09 09:03:36 51°17.149 2°52.53 340.2 4.9 328 9.3
2012-03-09 09:03:40 51°17.154 2°52.525 340.1 4.9 328 9.3
2012-03-09 09:03:45 51°17.16 2°52.519 340 5.1 326 9.5
2012-03-09 09:03:50 51°17.165 2°52.513 339.8 5 326 9.4
2012-03-09 09:03:55 51°17.171 2°52.507 339.5 5 326 9.3
2012-03-09 09:04:00 51°17.177 2°52.5 339.1 5 326 9.3
2012-03-09 09:04:05 51°17.183 2°52.494 339 5.2 324 9.4
2012-03-09 09:04:10 51°17.189 2°52.487 338.9 5.1 324 9.5
2012-03-09 09:04:15 51°17.194 2°52.481 338.9 5.1 325 9.4
2012-03-09 09:04:20 51°17.2 2°52.476 338.7 5 326 9.3
2012-03-09 09:04:25 51°17.206 2°52.469 338.6 5 326 9.5
2012-03-09 09:04:30 51°17.212 2°52.463 338.4 5.1 325 9.4
2012-03-09 09:04:35 51°17.217 2°52.456 338.3 5.1 324 9.5
2012-03-09 09:04:40 51°17.223 2°52.449 338.3 5.1 324 9.5
2012-03-09 09:04:45 51°17.229 2°52.443 338 5.2 324 9.6
2012-03-09 09:04:50 51°17.235 2°52.436 337.7 5.1 325 9.6
2012-03-09 09:04:55 51°17.241 2°52.43 337.6 5.1 325 9.8
2012-03-09 09:05:00 51°17.246 2°52.423 337.4 5.2 323 9.7
2012-03-09 09:05:05 51°17.252 2°52.416 337 5.1 323 9.6
2012-03-09 09:05:10 51°17.258 2°52.41 336.5 5.1 323 9.6
2012-03-09 09:05:16 51°17.265 2°52.401 336 5.1 323 9.7
2012-03-09 09:05:20 51°17.269 2°52.395 335.8 5.2 322 9.8
2012-03-09 09:05:25 51°17.275 2°52.389 335.6 5.1 323 9.8
2012-03-09 09:05:30 51°17.28 2°52.381 335.6 5.2 322 9.8
2012-03-09 09:05:36 51°17.287 2°52.373 335.1 5.2 320 10
2012-03-09 09:05:40 51°17.292 2°52.367 334.5 5.2 320 9.8
2012-03-09 09:05:45 51°17.297 2°52.36 334 5.2 320 9.8
2012-03-09 09:05:50 51°17.303 2°52.352 333.4 5.2 319 9.8
2012-03-09 09:05:55 51°17.308 2°52.345 333.2 5.2 319 9.9
2012-03-09 09:06:00 51°17.314 2°52.337 332.7 5.2 317 10.1
2012-03-09 09:06:05 51°17.319 2°52.33 332.5 5.2 318 10
2012-03-09 09:06:10 51°17.325 2°52.322 332.3 5.2 318 9.9
2012-03-09 09:06:15 51°17.33 2°52.314 332.4 5.3 318 9.9
2012-03-09 09:06:20 51°17.335 2°52.307 332.4 5.2 318 9.9
2012-03-09 09:06:25 51°17.341 2°52.299 332.4 5.2 320 9.9
2012-03-09 09:06:30 51°17.346 2°52.292 332.7 5.1 318 10
2012-03-09 09:06:35 51°17.352 2°52.284 332.9 5.2 319 10.1
2012-03-09 09:06:40 51°17.357 2°52.277 333 5.2 319 10.2
2012-03-09 09:06:45 51°17.363 2°52.269 333.2 5.3 319 10.3
2012-03-09 09:06:50 51°17.368 2°52.262 333.6 5.2 320 10.5
2012-03-09 09:06:55 51°17.373 2°52.254 333.9 5.1 320 10.4
2012-03-09 09:07:00 51°17.379 2°52.247 334.2 5.1 321 10.6
2012-03-09 09:07:05 51°17.385 2°52.239 334.6 5.2 321 10.7
2012-03-09 09:07:10 51°17.39 2°52.232 335 5.2 322 10.8
2012-03-09 09:07:15 51°17.396 2°52.225 335.7 5.2 322 11
2012-03-09 09:07:20 51°17.402 2°52.218 336.6 5.3 322 10.8
2012-03-09 09:07:25 51°17.408 2°52.212 337.2 5.2 324 10.8
2012-03-09 09:07:30 51°17.413 2°52.205 337.6 5 325 10.7
2012-03-09 09:07:36 51°17.42 2°52.197 337.9 5.1 325 10.7
2012-03-09 09:07:40 51°17.425 2°52.192 338.3 5.1 326 10.7
2012-03-09 09:07:44 51°17.43 2°52.187 338.5 5.1 326 10.9
2012-03-09 09:07:50 51°17.437 2°52.179 339.2 5.2 327 11
2012-03-09 09:07:56 51°17.444 2°52.172 339.8 5.1 327 10.9
2012-03-09 09:08:00 51°17.449 2°52.167 340.2 5.1 327 10.7
2012-03-09 09:08:05 51°17.455 2°52.161 340.5 5.1 327 10.8
2012-03-09 09:08:10 51°17.461 2°52.155 340.5 5.1 327 10.6
2012-03-09 09:08:16 51°17.468 2°52.148 340.3 5.1 327 10.8
2012-03-09 09:08:20 51°17.473 2°52.143 340.2 5.1 327 10.8
2012-03-09 09:08:25 51°17.479 2°52.137 340.2 5 328 10.8
2012-03-09 09:08:30 51°17.485 2°52.131 340 5.1 327 10.9
2012-03-09 09:08:35 51°17.491 2°52.124 339.6 5.2 326 10.7
2012-03-09 09:08:40 51°17.497 2°52.118 339.2 5.1 325 10.9
2012-03-09 09:08:45 51°17.502 2°52.111 338.6 5.1 325 10.9
2012-03-09 09:08:50 51°17.508 2°52.104 338.1 5.2 324 10.9
2012-03-09 09:08:55 51°17.514 2°52.098 337.5 5.1 323 11
2012-03-09 09:09:00 51°17.52 2°52.091 337 5.2 323 10.9
2012-03-09 09:09:05 51°17.525 2°52.084 336.8 5.2 322 10.8
2012-03-09 09:09:10 51°17.531 2°52.077 336.4 5.1 322 10.8
2012-03-09 09:09:15 51°17.536 2°52.07 336.1 5.2 321 10.7
2012-03-09 09:09:20 51°17.542 2°52.063 335.5 5.2 321 10.8
2012-03-09 09:09:25 51°17.547 2°52.056 335.3 5.2 321 10.8
2012-03-09 09:09:30 51°17.553 2°52.048 335 5.2 320 10.8
2012-03-09 09:09:36 51°17.559 2°52.039 334.7 5.1 320 10.6
2012-03-09 09:09:40 51°17.564 2°52.033 334.2 5.2 320 10.5
2012-03-09 09:09:45 51°17.569 2°52.026 333.9 5.2 319 10.4
2012-03-09 09:09:50 51°17.575 2°52.018 333.4 5.2 318 10.1
2012-03-09 09:09:56 51°17.581 2°52.009 333.1 5.2 319 10.2
2012-03-09 09:10:00 51°17.586 2°52.003 332.8 5.3 319 10.1
2012-03-09 09:10:05 51°17.591 2°51.995 332.7 5.3 318 10.4
2012-03-09 09:10:10 51°17.597 2°51.987 332.7 5.2 317 10
2012-03-09 09:10:15 51°17.602 2°51.98 332.5 5.2 317 10
2012-03-09 09:10:20 51°17.607 2°51.972 332.5 5.2 318 10
2012-03-09 09:10:25 51°17.613 2°51.964 332.5 5.2 318 10.1
2012-03-09 09:10:30 51°17.618 2°51.957 332.7 5.1 318 10
2012-03-09 09:10:35 51°17.623 2°51.949 332.8 5.2 319 9.9
2012-03-09 09:10:40 51°17.629 2°51.942 333.1 5.1 319 9.9
2012-03-09 09:10:45 51°17.634 2°51.934 333.3 5.2 319 9.8
2012-03-09 09:10:50 51°17.64 2°51.926 333.7 5.3 319 9.8
2012-03-09 09:10:55 51°17.645 2°51.918 334.1 5.3 319 9.9
2012-03-09 09:11:00 51°17.651 2°51.911 334.7 5.2 320 9.8
2012-03-09 09:11:05 51°17.656 2°51.904 334.9 5.2 321 9.9
2012-03-09 09:11:10 51°17.661 2°51.896 335.2 5.1 320 9.8
2012-03-09 09:11:15 51°17.667 2°51.889 335.4 5.1 321 9.8
2012-03-09 09:11:20 51°17.672 2°51.882 335.4 5.1 321 9.8
2012-03-09 09:11:24 51°17.677 2°51.876 336.1 5.1 321 9.8
2012-03-09 09:11:30 51°17.684 2°51.868 336.7 5.1 322 9.7
2012-03-09 09:11:35 51°17.689 2°51.861 337.3 5.1 322 9.8
2012-03-09 09:11:40 51°17.695 2°51.854 337.7 5.1 324 9.7
2012-03-09 09:11:45 51°17.701 2°51.847 338.1 5.2 324 9.7
2012-03-09 09:11:50 51°17.706 2°51.84 338.3 5.1 324 10
2012-03-09 09:11:56 51°17.713 2°51.833 339.1 5.1 324 9.7
2012-03-09 09:12:00 51°17.718 2°51.828 339.4 5.1 325 9.7
2012-03-09 09:12:05 51°17.724 2°51.821 340 5 325 9.8
2012-03-09 09:12:10 51°17.729 2°51.815 340 5.1 325 9.6
2012-03-09 09:12:16 51°17.736 2°51.807 339.9 5 324 9.7
2012-03-09 09:12:20 51°17.741 2°51.802 339.9 5 325 9.7
2012-03-09 09:12:25 51°17.746 2°51.795 339.8 5.1 325 9.8
2012-03-09 09:12:30 51°17.752 2°51.789 339.9 5.1 325 9.6
2012-03-09 09:12:36 51°17.759 2°51.781 339.6 5.1 325 9.6
2012-03-09 09:12:40 51°17.764 2°51.776 339.6 5.1 325 9.7
2012-03-09 09:12:45 51°17.769 2°51.769 339.4 5.2 324 9.8
2012-03-09 09:12:50 51°17.775 2°51.763 339.3 5.1 323 9.7
2012-03-09 09:12:55 51°17.781 2°51.756 339.1 5.1 323 9.7
2012-03-09 09:13:00 51°17.787 2°51.749 338.5 5.2 323 9.6
2012-03-09 09:13:05 51°17.792 2°51.742 338.2 5.2 323 9.6
2012-03-09 09:13:10 51°17.798 2°51.735 337.9 5.2 323 9.7
2012-03-09 09:13:15 51°17.803 2°51.728 337.8 5.2 322 9.8
2012-03-09 09:13:20 51°17.809 2°51.721 337.6 5.2 323 9.8
2012-03-09 09:13:25 51°17.815 2°51.714 337.3 5.2 322 9.6
2012-03-09 09:13:30 51°17.82 2°51.707 337.2 5.1 322 9.6
2012-03-09 09:13:35 51°17.826 2°51.7 336.9 5.2 321 9.8
2012-03-09 09:13:40 51°17.832 2°51.693 336.7 5.2 322 9.8
2012-03-09 09:13:45 51°17.837 2°51.686 336.5 5.2 322 9.7
2012-03-09 09:13:50 51°17.843 2°51.678 336.3 5.1 320 9.7
2012-03-09 09:13:55 51°17.848 2°51.671 336 5.1 320 9.6
2012-03-09 09:14:00 51°17.854 2°51.664 335.7 5.1 320 9.9
2012-03-09 09:14:05 51°17.859 2°51.657 335.2 5.1 320 9.7
2012-03-09 09:14:10 51°17.865 2°51.65 335 5.2 321 9.9
2012-03-09 09:14:16 51°17.871 2°51.64 334.7 5.2 319 9.9
2012-03-09 09:14:20 51°17.876 2°51.634 334.3 5.1 320 9.8
2012-03-09 09:14:25 51°17.881 2°51.626 333.8 5.3 319 9.8
2012-03-09 09:14:30 51°17.887 2°51.618 333.8 5.3 318 9.9
2012-03-09 09:14:36 51°17.894 2°51.61 333.6 5.3 318 10